Time;durP1;ratioP1;P1;durP2;ratioP2;P2;SDS_P1;SDS_P2;PMS_P1;PMS_P2;Temp;Humidity;BMP_temperature;BMP_pressure;BME280_temperature;BME280_humidity;BME280_pressure;Samples;Min_cycle;Max_cycle;Signal;HPM_P1;HPM_P2
2022/11/26 00:01:57;;;;;;;;;;;;;;;;;;4936624;29;19962;-79
2022/11/26 00:04:23;;;;;;;;;;;;;;;;;;4936908;29;20374;-79
2022/11/26 00:06:48;;;;;;;;;;;;;;;;;;4919741;29;19929;-79
2022/11/26 00:09:14;;;;;;;;;;;;;;;;;;4936803;29;19915;-79
2022/11/26 00:11:42;;;;;;;;;;;;;;;;;;4936676;29;19922;-78
2022/11/26 00:14:07;;;;;;;;;;;;;;;;;;4951911;29;20291;-80
2022/11/26 00:16:32;;;;;;;;;;;;;;;;;;4936861;29;19919;-79
2022/11/26 00:18:58;;;;;;;;;;;;;;;;;;4920004;29;19945;-79
2022/11/26 00:21:23;;;;;;;;;;;;;;;;;;4936804;29;20001;-79
2022/11/26 00:23:49;;;;;;;;;;;;;;;;;;4935714;29;19918;-79
2022/11/26 00:26:14;;;;;;;;;;;;;;;;;;4935904;29;20379;-79
2022/11/26 00:28:41;;;;;;;;;;;;;;;;;;4936751;29;22442;-79
2022/11/26 00:31:06;;;;;;;;;;;;;;;;;;4936691;29;20375;-77
2022/11/26 00:33:32;;;;;;;;;;;;;;;;;;4936059;29;19915;-78
2022/11/26 00:35:57;;;;;;;;;;;;;;;;;;4936789;29;20013;-80
2022/11/26 00:38:23;;;;;;;;;;;;;;;;;;4935915;29;20009;-80
2022/11/26 00:40:48;;;;;;;;;;;;;;;;;;4936116;29;19925;-79
2022/11/26 00:43:13;;;;;;;;;;;;;;;;;;4936512;29;19957;-79
2022/11/26 00:45:39;;;;;;;;;;;;;;;;;;4935959;29;19919;-80
2022/11/26 00:48:04;;;;;;;;;;;;;;;;;;4937754;29;19911;-80
2022/11/26 00:50:30;;;;;;;;;;;;;;;;;;4936116;29;20379;-79
2022/11/26 00:52:55;;;;;;;;;;;;;;;;;;4937513;29;19922;-80
2022/11/26 00:55:20;;;;;;;;;;;;;;;;;;4938539;29;19921;-80
2022/11/26 00:57:46;;;;;;;;;;;;;;;;;;4940076;29;19915;-79
2022/11/26 01:00:14;;;;;;;;;;;;;;;;;;4941211;29;20382;-79
2022/11/26 01:02:39;;;;;;;;;;;;;;;;;;4940792;29;19964;-79
2022/11/26 01:05:07;;;;;;;;;;;;;;;;;;4940392;29;19914;-79
2022/11/26 01:07:32;;;;;;;;;;;;;;;;;;4923973;29;19946;-79
2022/11/26 01:09:58;;;;;;;;;;;;;;;;;;4940295;29;19918;-79
2022/11/26 01:12:23;;;;;;;;;;;;;;;;;;4941180;29;19969;-80
2022/11/26 01:14:48;;;;;;;;;;;;;;;;;;4941864;29;20409;-80
2022/11/26 01:17:14;;;;;;;;;;;;;;;;;;4943105;29;19969;-80
2022/11/26 01:19:39;;;;;;;;;;;;;;;;;;4943539;29;20397;-80
2022/11/26 01:22:05;;;;;;;;;;;;;;;;;;4942438;29;19914;-80
2022/11/26 01:24:30;;;;;;;;;;;;;;;;;;4941530;29;19933;-80
2022/11/26 01:26:55;;;;;;;;;;;;;;;;;;4942641;29;19922;-80
2022/11/26 01:29:21;;;;;;;;;;;;;;;;;;4942779;29;20305;-80
2022/11/26 01:31:46;;;;;;;;;;;;;;;;;;4943508;29;20029;-80
2022/11/26 01:34:11;;;;;;;;;;;;;;;;;;4943290;29;19945;-80
2022/11/26 01:36:37;;;;;;;;;;;;;;;;;;4943158;29;19915;-80
2022/11/26 01:39:02;;;;;;;;;;;;;;;;;;4944086;29;19965;-80
2022/11/26 01:41:28;;;;;;;;;;;;;;;;;;4943538;29;20417;-80
2022/11/26 01:43:53;;;;;;;;;;;;;;;;;;4943439;29;19914;-80
2022/11/26 01:46:18;;;;;;;;;;;;;;;;;;4943123;29;19915;-80
2022/11/26 01:48:44;;;;;;;;;;;;;;;;;;4944177;29;19915;-80
2022/11/26 01:51:09;;;;;;;;;;;;;;;;;;4944375;29;19915;-80
2022/11/26 01:53:35;;;;;;;;;;;;;;;;;;4947811;29;19922;-79
2022/11/26 01:56:00;;;;;;;;;;;;;;;;;;4947848;29;19919;-79
2022/11/26 01:58:25;;;;;;;;;;;;;;;;;;4942793;29;19915;-79
2022/11/26 02:00:51;;;;;;;;;;;;;;;;;;4943239;29;19921;-80
2022/11/26 02:03:20;;;;;;;;;;;;;;;;;;4944732;29;19915;-80
2022/11/26 02:05:46;;;;;;;;;;;;;;;;;;4943456;29;20429;-80
2022/11/26 02:08:11;;;;;;;;;;;;;;;;;;4943525;29;19926;-80
2022/11/26 02:10:36;;;;;;;;;;;;;;;;;;4942857;29;19966;-80
2022/11/26 02:13:02;;;;;;;;;;;;;;;;;;4941397;29;19924;-80
2022/11/26 02:15:27;;;;;;;;;;;;;;;;;;4943270;29;19966;-80
2022/11/26 02:17:53;;;;;;;;;;;;;;;;;;4943661;29;20407;-80
2022/11/26 02:20:18;;;;;;;;;;;;;;;;;;4943623;29;19982;-80
2022/11/26 02:22:43;;;;;;;;;;;;;;;;;;4945928;29;19953;-80
2022/11/26 02:25:09;;;;;;;;;;;;;;;;;;4945985;29;19914;-79
2022/11/26 02:27:34;;;;;;;;;;;;;;;;;;4945524;29;19915;-80
2022/11/26 02:30:00;;;;;;;;;;;;;;;;;;4945571;29;19915;-80
2022/11/26 02:32:25;;;;;;;;;;;;;;;;;;4943362;29;19911;-79
2022/11/26 02:34:50;;;;;;;;;;;;;;;;;;4943788;29;19957;-80
2022/11/26 02:37:16;;;;;;;;;;;;;;;;;;4942959;29;19915;-80
2022/11/26 02:39:41;;;;;;;;;;;;;;;;;;4944760;29;19926;-80
2022/11/26 02:42:07;;;;;;;;;;;;;;;;;;4945696;29;19915;-80
2022/11/26 02:44:32;;;;;;;;;;;;;;;;;;4944910;29;20018;-80
2022/11/26 02:46:57;;;;;;;;;;;;;;;;;;4943923;29;20394;-79
2022/11/26 02:49:23;;;;;;;;;;;;;;;;;;4946284;29;19921;-80
2022/11/26 02:51:48;;;;;;;;;;;;;;;;;;4947136;29;19950;-79
2022/11/26 02:54:14;;;;;;;;;;;;;;;;;;4946069;29;20120;-79
2022/11/26 02:56:39;;;;;;;;;;;;;;;;;;4945484;29;19970;-79
2022/11/26 02:59:04;;;;;;;;;;;;;;;;;;4943945;29;20361;-80
2022/11/26 03:01:30;;;;;;;;;;;;;;;;;;4944708;29;20398;-80
2022/11/26 03:03:57;;;;;;;;;;;;;;;;;;4945152;29;19915;-79
2022/11/26 03:06:22;;;;;;;;;;;;;;;;;;4945784;29;19922;-79
2022/11/26 03:08:48;;;;;;;;;;;;;;;;;;4942515;29;19915;-80
2022/11/26 03:11:13;;;;;;;;;;;;;;;;;;4929886;29;19915;-79
2022/11/26 03:13:38;;;;;;;;;;;;;;;;;;4942294;29;19972;-80
2022/11/26 03:16:04;;;;;;;;;;;;;;;;;;4941913;29;19919;-80
2022/11/26 03:18:29;;;;;;;;;;;;;;;;;;4923620;29;20290;-80
2022/11/26 03:20:54;;;;;;;;;;;;;;;;;;4939529;29;19914;-80
2022/11/26 03:23:20;;;;;;;;;;;;;;;;;;4938736;29;19922;-80
2022/11/26 03:25:45;;;;;;;;;;;;;;;;;;4939478;29;19950;-80
2022/11/26 03:28:10;;;;;;;;;;;;;;;;;;4941152;29;20004;-80
2022/11/26 03:30:36;;;;;;;;;;;;;;;;;;4939435;29;20264;-80
2022/11/26 03:33:01;;;;;;;;;;;;;;;;;;4940075;29;19914;-80
2022/11/26 03:35:27;;;;;;;;;;;;;;;;;;4941083;29;20016;-80
2022/11/26 03:37:52;;;;;;;;;;;;;;;;;;4925010;29;20330;-80
2022/11/26 03:40:17;;;;;;;;;;;;;;;;;;4943368;29;19915;-80
2022/11/26 03:42:43;;;;;;;;;;;;;;;;;;4942054;29;20406;-80
2022/11/26 03:45:08;;;;;;;;;;;;;;;;;;4941535;29;19918;-80
2022/11/26 03:47:33;;;;;;;;;;;;;;;;;;4942836;29;19911;-80
2022/11/26 03:49:59;;;;;;;;;;;;;;;;;;4944104;29;19915;-81
2022/11/26 03:52:24;;;;;;;;;;;;;;;;;;4943570;29;20303;-79
2022/11/26 03:54:50;;;;;;;;;;;;;;;;;;4943247;29;20609;-80
2022/11/26 03:57:15;;;;;;;;;;;;;;;;;;4942648;29;19921;-80
2022/11/26 03:59:41;;;;;;;;;;;;;;;;;;4943623;29;19919;-79
2022/11/26 04:02:06;;;;;;;;;;;;;;;;;;4943036;29;20330;-80
2022/11/26 04:04:32;;;;;;;;;;;;;;;;;;4943809;29;19921;-80
2022/11/26 04:06:57;;;;;;;;;;;;;;;;;;4943276;29;19919;-79
2022/11/26 04:09:22;;;;;;;;;;;;;;;;;;4944247;29;19918;-79
2022/11/26 04:11:48;;;;;;;;;;;;;;;;;;4949212;29;20432;-79
2022/11/26 04:14:13;;;;;;;;;;;;;;;;;;4950007;29;19915;-79
2022/11/26 04:16:38;;;;;;;;;;;;;;;;;;4949476;29;19915;-81
2022/11/26 04:19:04;;;;;;;;;;;;;;;;;;4946220;29;19974;-80
2022/11/26 04:21:29;;;;;;;;;;;;;;;;;;4946200;29;19911;-79
2022/11/26 04:23:54;;;;;;;;;;;;;;;;;;4943832;29;19915;-79
2022/11/26 04:26:20;;;;;;;;;;;;;;;;;;4945260;29;19915;-79
2022/11/26 04:28:45;;;;;;;;;;;;;;;;;;4946185;29;19915;-79
2022/11/26 04:31:11;;;;;;;;;;;;;;;;;;4942471;29;19915;-79
2022/11/26 04:33:36;;;;;;;;;;;;;;;;;;4941487;29;20018;-79
2022/11/26 04:36:01;;;;;;;;;;;;;;;;;;4941062;29;19939;-79
2022/11/26 04:38:27;;;;;;;;;;;;;;;;;;4942001;29;19923;-80
2022/11/26 04:40:52;;;;;;;;;;;;;;;;;;4941338;29;19915;-80
2022/11/26 04:43:17;;;;;;;;;;;;;;;;;;4943059;29;19962;-80
2022/11/26 04:45:43;;;;;;;;;;;;;;;;;;4941972;29;19914;-80
2022/11/26 04:48:08;;;;;;;;;;;;;;;;;;4941975;29;20400;-80
2022/11/26 04:50:34;;;;;;;;;;;;;;;;;;4942213;29;19939;-80
2022/11/26 04:52:59;;;;;;;;;;;;;;;;;;4941041;29;19919;-80
2022/11/26 04:55:24;;;;;;;;;;;;;;;;;;4940369;29;20014;-79
2022/11/26 04:57:50;;;;;;;;;;;;;;;;;;4940844;29;20057;-80
2022/11/26 05:00:15;;;;;;;;;;;;;;;;;;4942444;29;19921;-80
2022/11/26 05:02:40;;;;;;;;;;;;;;;;;;4940704;29;19943;-80
2022/11/26 05:05:06;;;;;;;;;;;;;;;;;;4940981;29;20442;-80
2022/11/26 05:07:31;;;;;;;;;;;;;;;;;;4940496;29;20306;-80
2022/11/26 05:09:57;;;;;;;;;;;;;;;;;;4940641;29;19914;-80
2022/11/26 05:12:22;;;;;;;;;;;;;;;;;;4942479;29;19941;-80
2022/11/26 05:14:47;;;;;;;;;;;;;;;;;;4942434;29;19922;-80
2022/11/26 05:17:13;;;;;;;;;;;;;;;;;;4942759;29;20005;-80
2022/11/26 05:19:38;;;;;;;;;;;;;;;;;;4923370;29;19922;-80
2022/11/26 05:22:03;;;;;;;;;;;;;;;;;;4923113;29;19954;-80
2022/11/26 05:24:29;;;;;;;;;;;;;;;;;;4939509;29;19915;-80
2022/11/26 05:26:54;;;;;;;;;;;;;;;;;;4939806;29;19982;-80
2022/11/26 05:29:20;;;;;;;;;;;;;;;;;;4940033;29;19922;-80
2022/11/26 05:31:45;;;;;;;;;;;;;;;;;;4940876;29;19915;-80
2022/11/26 05:34:11;;;;;;;;;;;;;;;;;;4940852;29;20406;-80
2022/11/26 05:36:36;;;;;;;;;;;;;;;;;;4939490;29;19915;-80
2022/11/26 05:39:01;;;;;;;;;;;;;;;;;;4923704;29;19978;-80
2022/11/26 05:41:27;;;;;;;;;;;;;;;;;;4924828;29;19919;-79
2022/11/26 05:43:52;;;;;;;;;;;;;;;;;;4943998;29;20290;-80
2022/11/26 05:46:17;;;;;;;;;;;;;;;;;;4945088;29;19946;-79
2022/11/26 05:48:43;;;;;;;;;;;;;;;;;;4946128;29;20398;-79
2022/11/26 05:51:08;;;;;;;;;;;;;;;;;;4928542;29;19919;-79
2022/11/26 05:53:34;;;;;;;;;;;;;;;;;;4944973;29;19914;-79
2022/11/26 05:55:59;;;;;;;;;;;;;;;;;;4945503;29;19930;-80
2022/11/26 05:58:24;;;;;;;;;;;;;;;;;;4944455;29;19918;-79
2022/11/26 06:00:50;;;;;;;;;;;;;;;;;;4945409;29;20279;-80
2022/11/26 06:03:15;;;;;;;;;;;;;;;;;;4944368;29;19937;-80
2022/11/26 06:05:41;;;;;;;;;;;;;;;;;;4945204;29;19935;-80
2022/11/26 06:08:06;;;;;;;;;;;;;;;;;;4944160;29;19926;-79
2022/11/26 06:10:31;;;;;;;;;;;;;;;;;;4945716;29;20355;-80
2022/11/26 06:12:57;;;;;;;;;;;;;;;;;;4945749;29;19915;-80
2022/11/26 06:15:22;;;;;;;;;;;;;;;;;;4946700;29;19921;-80
2022/11/26 06:17:47;;;;;;;;;;;;;;;;;;4950191;29;19966;-80
2022/11/26 06:20:13;;;;;;;;;;;;;;;;;;4950218;29;19915;-80
2022/11/26 06:22:38;;;;;;;;;;;;;;;;;;4946329;29;19926;-80
2022/11/26 06:25:04;;;;;;;;;;;;;;;;;;4947411;29;20407;-80
2022/11/26 06:27:29;;;;;;;;;;;;;;;;;;4947219;29;20002;-80
2022/11/26 06:29:54;;;;;;;;;;;;;;;;;;4946273;29;19915;-80
2022/11/26 06:32:20;;;;;;;;;;;;;;;;;;4946426;29;20009;-80
2022/11/26 06:34:45;;;;;;;;;;;;;;;;;;4933580;29;19915;-80
2022/11/26 06:37:11;;;;;;;;;;;;;;;;;;4949758;29;19915;-80
2022/11/26 06:39:36;;;;;;;;;;;;;;;;;;4948239;29;20009;-80
2022/11/26 06:42:02;;;;;;;;;;;;;;;;;;4948496;29;19915;-79
2022/11/26 06:44:27;;;;;;;;;;;;;;;;;;4946519;29;20297;-80
2022/11/26 06:46:52;;;;;;;;;;;;;;;;;;4946528;29;19922;-80
2022/11/26 06:49:18;;;;;;;;;;;;;;;;;;4946142;29;19919;-79
2022/11/26 06:51:43;;;;;;;;;;;;;;;;;;4945891;29;20383;-80
2022/11/26 06:54:09;;;;;;;;;;;;;;;;;;4929478;29;19918;-80
2022/11/26 06:56:34;;;;;;;;;;;;;;;;;;4947740;29;19923;-79
2022/11/26 06:58:59;;;;;;;;;;;;;;;;;;4949772;29;19943;-80
2022/11/26 07:01:25;;;;;;;;;;;;;;;;;;4955535;29;19926;-79
2022/11/26 07:03:50;;;;;;;;;;;;;;;;;;4955200;29;19965;-80
2022/11/26 07:06:16;;;;;;;;;;;;;;;;;;4953981;29;19939;-80
2022/11/26 07:08:42;;;;;;;;;;;;;;;;;;4933198;29;19950;-80
2022/11/26 07:11:07;;;;;;;;;;;;;;;;;;4947525;29;19986;-81
2022/11/26 07:13:33;;;;;;;;;;;;;;;;;;4946735;29;19938;-80
2022/11/26 07:15:58;;;;;;;;;;;;;;;;;;4930726;29;19919;-80
2022/11/26 07:18:24;;;;;;;;;;;;;;;;;;4944077;29;19986;-80
2022/11/26 07:20:49;;;;;;;;;;;;;;;;;;4946355;29;19922;-80
2022/11/26 07:23:15;;;;;;;;;;;;;;;;;;4948499;29;19922;-80
2022/11/26 07:25:40;;;;;;;;;;;;;;;;;;4948740;29;19942;-80
2022/11/26 07:28:05;;;;;;;;;;;;;;;;;;4950472;29;19915;-81
2022/11/26 07:30:31;;;;;;;;;;;;;;;;;;4951641;29;19921;-81
2022/11/26 07:32:56;;;;;;;;;;;;;;;;;;4950823;29;19915;-80
2022/11/26 07:35:22;;;;;;;;;;;;;;;;;;4950885;29;20010;-80
2022/11/26 07:37:47;;;;;;;;;;;;;;;;;;4947847;29;20335;-80
2022/11/26 07:40:13;;;;;;;;;;;;;;;;;;4947668;29;19921;-80
2022/11/26 07:42:39;;;;;;;;;;;;;;;;;;4932888;29;19919;-80
2022/11/26 07:45:04;;;;;;;;;;;;;;;;;;4949458;29;19914;-77
2022/11/26 07:47:30;;;;;;;;;;;;;;;;;;4945805;29;19915;-78
2022/11/26 07:49:55;;;;;;;;;;;;;;;;;;4945447;29;19915;-77
2022/11/26 07:52:20;;;;;;;;;;;;;;;;;;4941527;29;19998;-78
2022/11/26 07:54:46;;;;;;;;;;;;;;;;;;4941075;29;19915;-78
2022/11/26 07:57:11;;;;;;;;;;;;;;;;;;4939483;29;20292;-78
2022/11/26 07:59:37;;;;;;;;;;;;;;;;;;4937864;29;20429;-78
2022/11/26 08:02:02;;;;;;;;;;;;;;;;;;4940387;29;19922;-78
2022/11/26 08:04:27;;;;;;;;;;;;;;;;;;4938411;29;19919;-78
2022/11/26 08:06:53;;;;;;;;;;;;;;;;;;4951858;23;19907;-80
2022/11/26 08:09:18;;;;;;;;;;;;;;;;;;4941348;29;19925;-84
2022/11/26 08:11:44;;;;;;;;;;;;;;;;;;4956808;29;19942;-83
2022/11/26 08:14:09;;;;;;;;;;;;;;;;;;4956137;29;20377;-85
2022/11/26 08:16:35;;;;;;;;;;;;;;;;;;4940980;29;20298;-84
2022/11/26 08:19:00;;;;;;;;;;;;;;;;;;4942066;29;19965;-83
2022/11/26 08:21:25;;;;;;;;;;;;;;;;;;4957966;29;20298;-85
2022/11/26 08:23:51;;;;;;;;;;;;;;;;;;4940196;29;19938;-84
2022/11/26 08:26:17;;;;;;;;;;;;;;;;;;4957006;29;19922;-83
2022/11/26 08:28:42;;;;;;;;;;;;;;;;;;4955610;29;19922;-82
2022/11/26 08:31:07;;;;;;;;;;;;;;;;;;4955589;29;20322;-83
2022/11/26 08:33:33;;;;;;;;;;;;;;;;;;4938785;29;20405;-86
2022/11/26 08:35:58;;;;;;;;;;;;;;;;;;4940289;29;19918;-81
2022/11/26 08:38:24;;;;;;;;;;;;;;;;;;4957631;29;20286;-82
2022/11/26 08:40:49;;;;;;;;;;;;;;;;;;4958396;29;19973;-84
2022/11/26 08:43:15;;;;;;;;;;;;;;;;;;4941262;29;19918;-88
2022/11/26 08:45:40;;;;;;;;;;;;;;;;;;4941788;29;19914;-84
2022/11/26 08:48:06;;;;;;;;;;;;;;;;;;4940897;29;19915;-83
2022/11/26 08:50:32;;;;;;;;;;;;;;;;;;4955346;29;19914;-86
2022/11/26 08:52:57;;;;;;;;;;;;;;;;;;4940131;29;19915;-84
2022/11/26 08:55:23;;;;;;;;;;;;;;;;;;4940009;29;19914;-87
2022/11/26 08:57:48;;;;;;;;;;;;;;;;;;4955927;29;19949;-84
2022/11/26 09:00:14;;;;;;;;;;;;;;;;;;4940335;29;20305;-82
2022/11/26 09:02:39;;;;;;;;;;;;;;;;;;4955110;29;20425;-85
2022/11/26 09:05:04;;;;;;;;;;;;;;;;;;4955991;29;19920;-85
2022/11/26 09:07:30;;;;;;;;;;;;;;;;;;4955059;29;20289;-84
2022/11/26 09:09:55;;;;;;;;;;;;;;;;;;4955049;29;19915;-85
2022/11/26 09:12:21;;;;;;;;;;;;;;;;;;4956300;29;20345;-83
2022/11/26 09:14:46;;;;;;;;;;;;;;;;;;4940838;29;19915;-83
2022/11/26 09:17:12;;;;;;;;;;;;;;;;;;4943511;29;19915;-83
2022/11/26 09:19:38;;;;;;;;;;;;;;;;;;4960096;29;20013;-83
2022/11/26 09:22:03;;;;;;;;;;;;;;;;;;4943114;29;19914;-83
2022/11/26 09:24:29;;;;;;;;;;;;;;;;;;4959963;29;19966;-84
2022/11/26 09:26:54;;;;;;;;;;;;;;;;;;4960974;29;19914;-84
2022/11/26 09:29:20;;;;;;;;;;;;;;;;;;4926984;29;20020;-85
2022/11/26 09:31:45;;;;;;;;;;;;;;;;;;4959440;29;19915;-84
2022/11/26 09:34:10;;;;;;;;;;;;;;;;;;4943243;29;19915;-83
2022/11/26 09:36:36;;;;;;;;;;;;;;;;;;4958640;29;19925;-81
2022/11/26 09:39:01;;;;;;;;;;;;;;;;;;4943514;29;19961;-84
2022/11/26 09:41:27;;;;;;;;;;;;;;;;;;4927271;29;19914;-83
2022/11/26 09:43:53;;;;;;;;;;;;;;;;;;4926954;29;19915;-85
2022/11/26 09:46:18;;;;;;;;;;;;;;;;;;4958964;29;19915;-84
2022/11/26 09:48:43;;;;;;;;;;;;;;;;;;4958979;29;20029;-84
2022/11/26 09:51:09;;;;;;;;;;;;;;;;;;4942711;29;19915;-84
2022/11/26 09:53:35;;;;;;;;;;;;;;;;;;4942130;29;20001;-81
2022/11/26 09:56:01;;;;;;;;;;;;;;;;;;4924826;29;19914;-83
2022/11/26 09:58:26;;;;;;;;;;;;;;;;;;4956384;29;19919;-83
2022/11/26 10:00:51;;;;;;;;;;;;;;;;;;4927104;29;19984;-82
2022/11/26 10:03:17;;;;;;;;;;;;;;;;;;4958389;29;20372;-80
2022/11/26 10:05:43;;;;;;;;;;;;;;;;;;4943032;29;19965;-83
2022/11/26 10:08:08;;;;;;;;;;;;;;;;;;4940981;29;19925;-81
2022/11/26 10:10:34;;;;;;;;;;;;;;;;;;4958698;29;20365;-85
2022/11/26 10:12:59;;;;;;;;;;;;;;;;;;4958412;29;19925;-84
2022/11/26 10:15:25;;;;;;;;;;;;;;;;;;4958852;29;19921;-84
2022/11/26 10:17:50;;;;;;;;;;;;;;;;;;4943455;29;19914;-84
2022/11/26 10:20:15;;;;;;;;;;;;;;;;;;4942810;29;20388;-82
2022/11/26 10:22:41;;;;;;;;;;;;;;;;;;4941892;29;19914;-84
2022/11/26 10:25:06;;;;;;;;;;;;;;;;;;4941351;29;20270;-83
2022/11/26 10:27:35;;;;;;;;;;;;;;;;;;4957227;28;19915;-83
2022/11/26 10:30:01;;;;;;;;;;;;;;;;;;4956972;29;20037;-85
2022/11/26 10:32:26;;;;;;;;;;;;;;;;;;4941204;29;19914;-83
2022/11/26 10:34:51;;;;;;;;;;;;;;;;;;4957111;29;19946;-80
2022/11/26 10:37:18;;;;;;;;;;;;;;;;;;4957235;29;20389;-82
2022/11/26 10:39:43;;;;;;;;;;;;;;;;;;4956778;29;19926;-82
2022/11/26 10:42:09;;;;;;;;;;;;;;;;;;4956220;29;19918;-84
2022/11/26 10:44:35;;;;;;;;;;;;;;;;;;4956410;29;20297;-82
2022/11/26 10:47:00;;;;;;;;;;;;;;;;;;4940956;29;19962;-81
2022/11/26 10:49:26;;;;;;;;;;;;;;;;;;4959387;29;19985;-84
2022/11/26 10:51:51;;;;;;;;;;;;;;;;;;4958566;29;19914;-84
2022/11/26 10:54:17;;;;;;;;;;;;;;;;;;4957774;28;19963;-84
2022/11/26 10:56:43;;;;;;;;;;;;;;;;;;4956886;29;20301;-82
2022/11/26 10:59:08;;;;;;;;;;;;;;;;;;4956378;29;19919;-82
2022/11/26 11:01:34;;;;;;;;;;;;;;;;;;4941443;29;20386;-81
2022/11/26 11:03:59;;;;;;;;;;;;;;;;;;4957007;29;19954;-82
2022/11/26 11:06:25;;;;;;;;;;;;;;;;;;4957835;29;19915;-82
2022/11/26 11:08:50;;;;;;;;;;;;;;;;;;4957221;29;20505;-83
2022/11/26 11:11:16;;;;;;;;;;;;;;;;;;4956535;29;20479;-81
2022/11/26 11:13:41;;;;;;;;;;;;;;;;;;4957163;29;19930;-81
2022/11/26 11:16:07;;;;;;;;;;;;;;;;;;4940766;29;20005;-83
2022/11/26 11:18:34;;;;;;;;;;;;;;;;;;4957018;29;20365;-81
2022/11/26 11:21:02;;;;;;;;;;;;;;;;;;4957946;28;19981;-81
2022/11/26 11:23:27;;;;;;;;;;;;;;;;;;4958193;29;19918;-82
2022/11/26 11:25:53;;;;;;;;;;;;;;;;;;4959089;29;19957;-83
2022/11/26 11:28:18;;;;;;;;;;;;;;;;;;4959283;29;19949;-78
2022/11/26 11:30:45;;;;;;;;;;;;;;;;;;4954254;29;20305;-80
2022/11/26 11:33:10;;;;;;;;;;;;;;;;;;4937989;29;19918;-81
2022/11/26 11:35:35;;;;;;;;;;;;;;;;;;4955554;29;20014;-80
2022/11/26 11:38:01;;;;;;;;;;;;;;;;;;4937776;29;20338;-81
2022/11/26 11:40:27;;;;;;;;;;;;;;;;;;4936957;29;19957;-80
2022/11/26 11:42:53;;;;;;;;;;;;;;;;;;4953777;29;19922;-80
2022/11/26 11:45:18;;;;;;;;;;;;;;;;;;4953808;29;19910;-80
2022/11/26 11:47:44;;;;;;;;;;;;;;;;;;4953801;29;19915;-80
2022/11/26 11:50:09;;;;;;;;;;;;;;;;;;4954951;29;20298;-80
2022/11/26 11:52:35;;;;;;;;;;;;;;;;;;4954325;29;19919;-81
2022/11/26 11:55:00;;;;;;;;;;;;;;;;;;4937848;29;20325;-82
2022/11/26 11:57:26;;;;;;;;;;;;;;;;;;4953338;29;20409;-82
2022/11/26 12:00:09;;;;;;;;;;;;;;;;;;4954555;28;20302;-79
2022/11/26 12:02:38;;;;;;;;;;;;;;;;;;4954238;28;19918;-78
2022/11/26 12:05:03;;;;;;;;;;;;;;;;;;4953142;29;19918;-80
2022/11/26 12:07:29;;;;;;;;;;;;;;;;;;4954215;29;19992;-80
2022/11/26 12:09:54;;;;;;;;;;;;;;;;;;4954746;28;20305;-80
2022/11/26 12:12:19;;;;;;;;;;;;;;;;;;4953070;29;19921;-79
2022/11/26 12:14:46;;;;;;;;;;;;;;;;;;4953242;29;20301;-79
2022/11/26 12:17:12;;;;;;;;;;;;;;;;;;4954299;28;19915;-78
2022/11/26 12:19:37;;;;;;;;;;;;;;;;;;4937060;29;20295;-80
2022/11/26 12:22:02;;;;;;;;;;;;;;;;;;4952907;29;19960;-78
2022/11/26 12:24:28;;;;;;;;;;;;;;;;;;4952562;29;19919;-80
2022/11/26 12:26:53;;;;;;;;;;;;;;;;;;4954209;29;20331;-79
2022/11/26 12:29:19;;;;;;;;;;;;;;;;;;4936943;29;19937;-80
2022/11/26 12:31:44;;;;;;;;;;;;;;;;;;4937279;29;19914;-80
2022/11/26 12:34:11;;;;;;;;;;;;;;;;;;4952924;29;19926;-82
2022/11/26 12:36:37;;;;;;;;;;;;;;;;;;4953112;29;19950;-77
2022/11/26 12:39:02;;;;;;;;;;;;;;;;;;4953178;29;19962;-79
2022/11/26 12:41:28;;;;;;;;;;;;;;;;;;4921920;29;20306;-79
2022/11/26 12:43:54;;;;;;;;;;;;;;;;;;4952818;29;20404;-80
2022/11/26 12:46:19;;;;;;;;;;;;;;;;;;4937601;29;20045;-79
2022/11/26 12:48:45;;;;;;;;;;;;;;;;;;4953599;29;20069;-82
2022/11/26 12:51:10;;;;;;;;;;;;;;;;;;4956278;28;20406;-81
2022/11/26 12:53:36;;;;;;;;;;;;;;;;;;4941466;29;19917;-80
2022/11/26 12:56:01;;;;;;;;;;;;;;;;;;4943603;29;19957;-80
2022/11/26 12:58:27;;;;;;;;;;;;;;;;;;4958700;29;20408;-80
2022/11/26 13:00:53;;;;;;;;;;;;;;;;;;4941730;29;19950;-78
2022/11/26 13:03:19;;;;;;;;;;;;;;;;;;4956888;29;19915;-83
2022/11/26 13:05:44;;;;;;;;;;;;;;;;;;4941425;29;19914;-82
2022/11/26 13:08:10;;;;;;;;;;;;;;;;;;4956541;29;19923;-78
2022/11/26 13:10:35;;;;;;;;;;;;;;;;;;4956249;29;19936;-80
2022/11/26 13:13:01;;;;;;;;;;;;;;;;;;4957776;29;19938;-82
2022/11/26 13:15:26;;;;;;;;;;;;;;;;;;4940465;29;20345;-77
2022/11/26 13:17:52;;;;;;;;;;;;;;;;;;4940327;29;20305;-79
2022/11/26 13:20:17;;;;;;;;;;;;;;;;;;4924423;29;19922;-79
2022/11/26 13:22:43;;;;;;;;;;;;;;;;;;4940162;29;19938;-78
2022/11/26 13:25:08;;;;;;;;;;;;;;;;;;4957513;29;20255;-79
2022/11/26 13:27:34;;;;;;;;;;;;;;;;;;4940466;29;20283;-78
2022/11/26 13:29:59;;;;;;;;;;;;;;;;;;4957490;29;19918;-78
2022/11/26 13:32:25;;;;;;;;;;;;;;;;;;4956027;29;19915;-78
2022/11/26 13:34:51;;;;;;;;;;;;;;;;;;4940524;29;19914;-78
2022/11/26 13:37:16;;;;;;;;;;;;;;;;;;4940381;29;19936;-79
2022/11/26 13:39:42;;;;;;;;;;;;;;;;;;4955911;29;20013;-79
2022/11/26 13:42:07;;;;;;;;;;;;;;;;;;4940034;29;19914;-79
2022/11/26 13:44:33;;;;;;;;;;;;;;;;;;4923968;29;19914;-80
2022/11/26 13:46:58;;;;;;;;;;;;;;;;;;4940040;29;20159;-78
2022/11/26 13:49:24;;;;;;;;;;;;;;;;;;4956014;29;20017;-77
2022/11/26 13:51:49;;;;;;;;;;;;;;;;;;4956260;29;19926;-79
2022/11/26 13:54:14;;;;;;;;;;;;;;;;;;4957053;29;20314;-79
2022/11/26 13:56:40;;;;;;;;;;;;;;;;;;4956694;29;19926;-77
2022/11/26 13:59:06;;;;;;;;;;;;;;;;;;4939693;29;19941;-77
2022/11/26 14:01:34;;;;;;;;;;;;;;;;;;4923855;28;19938;-80
2022/11/26 14:03:59;;;;;;;;;;;;;;;;;;4938592;29;19914;-81
2022/11/26 14:06:26;;;;;;;;;;;;;;;;;;4955548;29;19938;-79
2022/11/26 14:08:52;;;;;;;;;;;;;;;;;;4968139;23;19930;-79
2022/11/26 14:11:17;;;;;;;;;;;;;;;;;;4939387;29;19922;-78
2022/11/26 14:13:43;;;;;;;;;;;;;;;;;;4955720;29;20456;-78
2022/11/26 14:16:08;;;;;;;;;;;;;;;;;;4955145;29;19938;-78
2022/11/26 14:18:33;;;;;;;;;;;;;;;;;;4939091;29;20023;-78
2022/11/26 14:20:59;;;;;;;;;;;;;;;;;;4955281;29;20382;-78
2022/11/26 14:23:24;;;;;;;;;;;;;;;;;;4954862;29;19915;-78
2022/11/26 14:25:50;;;;;;;;;;;;;;;;;;4954705;29;19921;-78
2022/11/26 14:28:15;;;;;;;;;;;;;;;;;;4922964;29;19915;-78
2022/11/26 14:30:41;;;;;;;;;;;;;;;;;;4939051;29;19946;-78
2022/11/26 14:33:06;;;;;;;;;;;;;;;;;;4955609;29;20421;-78
2022/11/26 14:35:31;;;;;;;;;;;;;;;;;;4955945;29;20012;-78
2022/11/26 14:37:57;;;;;;;;;;;;;;;;;;4955862;29;20383;-78
2022/11/26 14:40:22;;;;;;;;;;;;;;;;;;4938503;29;19925;-78
2022/11/26 14:42:48;;;;;;;;;;;;;;;;;;4955824;28;20408;-78
2022/11/26 14:45:13;;;;;;;;;;;;;;;;;;4938926;29;19911;-78
2022/11/26 14:47:38;;;;;;;;;;;;;;;;;;4955806;29;19914;-78
2022/11/26 14:50:04;;;;;;;;;;;;;;;;;;4956443;29;19983;-81
2022/11/26 14:52:29;;;;;;;;;;;;;;;;;;4926181;29;20374;-84
2022/11/26 14:54:55;;;;;;;;;;;;;;;;;;4940403;29;20402;-86
2022/11/26 14:57:20;;;;;;;;;;;;;;;;;;4924371;29;19937;-84
2022/11/26 14:59:46;;;;;;;;;;;;;;;;;;4958980;29;20061;-83
2022/11/26 15:02:11;;;;;;;;;;;;;;;;;;4951874;29;19921;-83
2022/11/26 15:04:37;;;;;;;;;;;;;;;;;;4952784;29;20320;-81
2022/11/26 15:07:04;;;;;;;;;;;;;;;;;;4936569;29;19915;-81
2022/11/26 15:09:30;;;;;;;;;;;;;;;;;;4951427;28;19919;-82
2022/11/26 15:11:55;;;;;;;;;;;;;;;;;;4938994;29;20009;-81
2022/11/26 15:14:20;;;;;;;;;;;;;;;;;;4950805;28;19914;-79
2022/11/26 15:16:46;;;;;;;;;;;;;;;;;;4950765;29;20359;-79
2022/11/26 15:19:11;;;;;;;;;;;;;;;;;;4936086;29;19946;-79
2022/11/26 15:21:37;;;;;;;;;;;;;;;;;;4934617;29;20331;-79
2022/11/26 15:24:02;;;;;;;;;;;;;;;;;;4921423;29;19950;-79
2022/11/26 15:26:28;;;;;;;;;;;;;;;;;;4938194;28;20009;-79
2022/11/26 15:28:53;;;;;;;;;;;;;;;;;;4950462;29;20371;-80
2022/11/26 15:31:18;;;;;;;;;;;;;;;;;;4937660;29;19927;-80
2022/11/26 15:33:44;;;;;;;;;;;;;;;;;;4936802;29;19915;-79
2022/11/26 15:36:09;;;;;;;;;;;;;;;;;;4952230;29;19957;-80
2022/11/26 15:38:34;;;;;;;;;;;;;;;;;;4944598;28;20009;-79
2022/11/26 15:41:00;;;;;;;;;;;;;;;;;;4934322;29;20021;-80
2022/11/26 15:43:26;;;;;;;;;;;;;;;;;;4935111;29;19985;-79
2022/11/26 15:45:51;;;;;;;;;;;;;;;;;;4935821;29;20378;-79
2022/11/26 15:48:16;;;;;;;;;;;;;;;;;;4950345;29;19915;-77
2022/11/26 15:50:42;;;;;;;;;;;;;;;;;;4935581;29;19919;-77
2022/11/26 15:53:07;;;;;;;;;;;;;;;;;;4934901;29;19914;-92
2022/11/26 15:55:33;;;;;;;;;;;;;;;;;;4951734;29;19922;-90
2022/11/26 15:57:59;;;;;;;;;;;;;;;;;;4935712;29;19962;-92
2022/11/26 16:00:24;;;;;;;;;;;;;;;;;;4926911;29;19919;-91
2022/11/26 16:02:51;;;;;;;;;;;;;;;;;;4921357;29;19914;-92
2022/11/26 16:05:16;;;;;;;;;;;;;;;;;;4925131;29;19922;-90
2022/11/26 16:07:41;;;;;;;;;;;;;;;;;;4950974;29;20337;-88
2022/11/26 16:10:07;;;;;;;;;;;;;;;;;;4940909;29;19903;-90
2022/11/26 16:12:32;;;;;;;;;;;;;;;;;;4940284;29;19922;-91
2022/11/26 16:14:58;;;;;;;;;;;;;;;;;;4939008;29;20400;-91
2022/11/26 16:17:23;;;;;;;;;;;;;;;;;;4954078;29;19958;-90
2022/11/26 16:19:48;;;;;;;;;;;;;;;;;;4936697;29;19919;-91
2022/11/26 16:22:14;;;;;;;;;;;;;;;;;;4935195;29;20286;-91
2022/11/26 16:24:41;;;;;;;;;;;;;;;;;;4918662;29;20334;-90
2022/11/26 16:27:06;;;;;;;;;;;;;;;;;;4934925;29;19914;-91
2022/11/26 16:29:32;;;;;;;;;;;;;;;;;;4919602;29;19930;-91
2022/11/26 16:31:57;;;;;;;;;;;;;;;;;;4919352;29;20298;-91
2022/11/26 16:34:23;;;;;;;;;;;;;;;;;;4934869;29;19921;-91